Details From EGCC - Manchester Intl
To EGNM - Leeds Bradford
Flight Number -
Tags generated
Created
Modified
Stats Distance 38 nm / 71 km
Max Altitude 4,800 ft / 1,463 m
Waypoints 3
Social Downloads 1
Likes 0
Share

Download

Looking for another format? Having issues loading an existing format? Contact us
Advertisement - Login to hide

Notes

Basic altitude profile: - Ascent Rate: 2500ft/min - Ascent Speed: 250kts - Cruise Altitude: 35000ft - Cruise Speed: 420kts - Descent Rate: 1500ft/min - Descent Speed: 250kts Options: - Use NATs: yes - Use PACOTS: yes - Use low airways: yes - Use high airways: yes

Route

EGCC POL11 EGNM

ID Type Via Altitude (ft/m) Position (lat/lon) Dist (leg/tot) Name
O EGCC APT - 0 / 0 53.34714 / -2.28395 - / 0 nm Manchester Intl
POL11 FIX - 4,800 / 1,463 53.55778 / -2.03028 15 / 15 nm
O EGNM APT - 0 / 0 53.86603 / -1.66078 22 / 38 nm Leeds Bradford

Altitude Profile

Advertisement - Login to hide

EGCC

Details ICAO EGCC (MAN)
Name Manchester
Region United Kingdom
Timezone Europe/London (UTC+1.0)
Stats Elevation 257 ft / 78 m (AMSL)
Location 53.347400° -2.283480°
Runways 2
Magnetic Variation 0.763° W

METAR

EGCC 281020Z 28006KT 240V330 9999 SCT036 14/06 Q1026

Decode

TAF

TAF EGCC 280456Z 2806/2912 30005KT 9999 FEW040= TAF EGKK 280456Z 2806/2912 35006KT 9999 FEW045 PROB30 TEMPO 2910/2912 7000 SHRA

Decode

Departure Runways

ID Width Length Bearing (true/mag) Surface Threshold Overrun Markings Lighting
05L 151 ft / 46 m 9,980 ft / 3,042 m 51.00° / 51.76° ASPHALT 1,401 ft / 427 m 0 ft / 0 m PREC-APP CENTERLINE EDGE THRESHOLD ALSF-II TDZ REIL-UNI
05R 144 ft / 44 m 10,519 ft / 3,206 m 50.98° / 51.74° ASPHALT 0 ft / 0 m 0 ft / 0 m UK-PREC-APP CENTERLINE EDGE THRESHOLD ALSF-I REIL-UNI
23L 144 ft / 44 m 10,519 ft / 3,206 m 231.00° / 231.77° ASPHALT 1,093 ft / 333 m 0 ft / 0 m UK-PREC-APP CENTERLINE EDGE THRESHOLD ALSF-I REIL-UNI
23R 151 ft / 46 m 9,980 ft / 3,042 m 231.03° / 231.79° ASPHALT 597 ft / 182 m 200 ft / 61 m PREC-APP CENTERLINE EDGE THRESHOLD ALSF-II TDZ REIL-UNI

EGNM

Details ICAO EGNM (LBA)
Name Leeds Bradford
Region United Kingdom
Timezone Europe/London (UTC+1.0)
Stats Elevation 681 ft / 208 m (AMSL)
Location 53.866000° -1.660770°
Runways 1
Magnetic Variation 0.595° W

METAR

EGNM 281020Z 04004KT 330V090 9999 SCT032 13/05 Q1026

Decode

TAF

TAF TAF EGNM 280454Z 2806/2906 28008KT 9999 FEW040 BECMG 2815/2818 02010KT

Decode

Destination Runways

ID Width Length Bearing (true/mag) Surface Threshold Overrun Markings Lighting
14 151 ft / 46 m 7,390 ft / 2,252 m 137.80° / 138.39° CONCRETE 1,027 ft / 313 m 39 ft / 12 m PREC-APP CENTERLINE EDGE THRESHOLD CALVERT REIL-OMNI
32 151 ft / 46 m 7,390 ft / 2,252 m 317.81° / 318.41° CONCRETE 899 ft / 274 m 43 ft / 13 m PREC-APP CENTERLINE EDGE THRESHOLD CALVERT-ILS TDZ REIL-OMNI

Approach Navaids

Runway Type Ident Frequency Range Bearing (true/mag) Slope Elevation
14 LOC-ILS ILBF 110.90 MHz 18 nm / 33 km 137.81° / 138.41 ° - 681 ft / 208 m (AMSL)
14 GS ILBF 110.90 MHz 10 nm / 19 km 137.81° / 138.41 ° 3.50° 681 ft / 208 m (AMSL)
14 DME ILBF 110.90 MHz 18 nm / 33 km - - 681 ft / 208 m (AMSL)
32 DME ILF 110.90 MHz 18 nm / 33 km - - 687 ft / 209 m (AMSL)
32 GS ILF 110.90 MHz 10 nm / 19 km 317.81° / 318.41 ° 3.00° 681 ft / 208 m (AMSL)
32 LOC-ILS ILF 110.90 MHz 18 nm / 33 km 317.81° / 318.41 ° - 681 ft / 208 m (AMSL)

Popular Alternatives